Time;durP1;ratioP1;P1;durP2;ratioP2;P2;SDS_P1;SDS_P2;PMS_P1;PMS_P2;Temp;Humidity;BMP_temperature;BMP_pressure;BME280_temperature;BME280_humidity;BME280_pressure;Samples;Min_cycle;Max_cycle;Signal;HPM_P1;HPM_P2
2022/01/30 00:00:20;;;;;;;4.10;2.70;;;6.60;99.90;;;;;;5135003;27;20295;-73
2022/01/30 00:02:47;;;;;;;4.17;2.93;;;6.60;99.90;;;;;;5134625;27;20203;-73
2022/01/30 00:05:14;;;;;;;2.90;2.40;;;6.60;99.90;;;;;;5121421;27;20207;-72
2022/01/30 00:07:40;;;;;;;2.97;2.47;;;6.60;99.90;;;;;;5118645;27;20659;-73
2022/01/30 00:10:11;;;;;;;4.73;2.40;;;6.80;99.90;;;;;;5132401;27;20235;-72
2022/01/30 00:12:45;;;;;;;2.97;2.50;;;6.70;99.90;;;;;;5129298;27;20207;-72
2022/01/30 00:15:14;;;;;;;2.57;1.77;;;6.70;99.90;;;;;;5133061;27;20202;-72
2022/01/30 00:17:45;;;;;;;2.33;2.00;;;6.80;99.90;;;;;;5131941;27;20204;-72
2022/01/30 00:20:18;;;;;;;3.47;2.03;;;6.80;99.90;;;;;;5125461;27;20281;-73
2022/01/30 00:22:50;;;;;;;2.07;1.87;;;6.80;99.90;;;;;;5125953;27;20200;-73
2022/01/30 00:25:26;;;;;;;2.17;1.60;;;6.80;99.90;;;;;;5123412;27;20210;-73
2022/01/30 00:28:02;;;;;;;1.60;1.47;;;6.80;99.90;;;;;;5127170;27;20333;-72
2022/01/30 00:30:33;;;;;;;2.67;1.30;;;6.70;99.90;;;;;;5121657;27;20220;-72
2022/01/30 00:33:00;;;;;;;3.07;1.10;;;6.60;99.90;;;;;;5118021;27;20219;-73
2022/01/30 00:35:27;;;;;;;1.60;0.67;;;6.50;99.90;;;;;;5130623;27;20207;-72
2022/01/30 00:37:54;;;;;;;3.00;0.93;;;6.50;99.90;;;;;;5120322;27;20682;-72
2022/01/30 00:40:21;;;;;;;5.33;0.90;;;6.50;99.90;;;;;;5115994;27;20199;-73
2022/01/30 00:42:48;;;;;;;3.00;1.30;;;6.40;99.90;;;;;;5123782;27;20204;-72
2022/01/30 00:45:16;;;;;;;3.13;1.17;;;6.40;99.90;;;;;;5138866;27;20571;-72
2022/01/30 00:47:43;;;;;;;5.20;1.13;;;6.40;99.90;;;;;;5122860;27;20208;-72
2022/01/30 00:50:11;;;;;;;2.67;1.10;;;6.30;99.90;;;;;;5131610;27;20584;-69
2022/01/30 00:52:37;;;;;;;4.20;0.90;;;6.30;99.90;;;;;;5126317;27;20656;-69
2022/01/30 00:55:05;;;;;;;2.50;1.00;;;6.30;99.90;;;;;;5121712;27;20204;-69
2022/01/30 00:57:32;;;;;;;6.93;1.10;;;6.30;99.90;;;;;;5130537;27;20250;-69
2022/01/30 00:59:59;;;;;;;2.27;0.83;;;6.20;99.90;;;;;;5128697;27;20270;-68
2022/01/30 01:02:27;;;;;;;2.70;1.00;;;6.20;99.90;;;;;;5127979;27;20203;-69
2022/01/30 01:04:54;;;;;;;3.47;0.90;;;6.10;99.90;;;;;;5122471;27;20200;-69
2022/01/30 01:07:23;;;;;;;1.40;0.77;;;6.10;99.90;;;;;;5121014;27;20246;-69
2022/01/30 01:09:59;;;;;;;2.33;0.80;;;6.10;99.90;;;;;;5115685;27;20580;-69
2022/01/30 01:12:55;;;;;;;4.97;1.00;;;6.10;99.90;;;;;;5129992;27;20213;-69
2022/01/30 01:23:41;;;;;;;3.67;1.10;;;5.80;99.90;;;;;;5123527;27;20203;-69
2022/01/30 01:26:08;;;;;;;1.53;0.73;;;5.70;99.90;;;;;;5127489;27;20251;-69
2022/01/30 01:28:35;;;;;;;4.57;1.30;;;5.70;99.90;;;;;;5112973;27;20214;-68
2022/01/30 01:31:02;;;;;;;5.37;1.30;;;5.60;99.90;;;;;;5115893;27;20692;-70
2022/01/30 01:33:39;;;;;;;3.73;0.90;;;5.60;99.90;;;;;;5111857;28;20207;-69
2022/01/30 01:36:06;;;;;;;4.10;1.33;;;5.50;99.90;;;;;;5112466;28;20196;-69
2022/01/30 01:38:33;;;;;;;4.90;1.20;;;5.50;99.90;;;;;;5119866;27;20645;-69
2022/01/30 01:41:00;;;;;;;5.40;1.57;;;5.50;99.90;;;;;;5125524;27;20567;-69
2022/01/30 01:43:27;;;;;;;5.60;1.53;;;5.50;99.90;;;;;;5112995;27;20204;-69
2022/01/30 01:45:57;;;;;;;7.43;1.17;;;5.40;99.90;;;;;;5111839;28;20210;-69
2022/01/30 01:48:24;;;;;;;4.43;1.53;;;5.40;99.90;;;;;;5126227;27;20207;-69
2022/01/30 01:51:03;;;;;;;7.13;1.30;;;5.40;99.90;;;;;;5120503;27;20595;-69
2022/01/30 01:53:30;;;;;;;8.53;2.03;;;5.40;99.90;;;;;;5130288;27;20671;-70
2022/01/30 01:55:57;;;;;;;3.93;1.20;;;5.40;99.90;;;;;;5124106;27;20208;-69
2022/01/30 01:58:28;;;;;;;8.83;1.50;;;5.40;99.90;;;;;;5113999;27;20214;-69
2022/01/30 02:00:54;;;;;;;4.90;1.63;;;5.50;99.90;;;;;;5128955;27;20202;-69
2022/01/30 02:03:22;;;;;;;6.00;1.50;;;5.40;99.90;;;;;;5121018;27;20218;-69
2022/01/30 02:05:54;;;;;;;9.53;1.40;;;5.50;99.90;;;;;;5113247;27;20286;-70
2022/01/30 02:11:10;;;;;;;5.33;1.37;;;5.40;99.90;;;;;;5121966;27;20224;-69
2022/01/30 02:24:55;;;;;;;5.00;1.87;;;5.30;99.90;;;;;;5114904;27;20255;-69
2022/01/30 02:27:25;;;;;;;5.53;1.90;;;5.30;99.90;;;;;;5128435;27;20222;-69
2022/01/30 02:29:52;;;;;;;5.17;1.87;;;5.30;99.90;;;;;;5122092;27;20666;-69
2022/01/30 02:32:19;;;;;;;5.50;1.53;;;5.20;99.90;;;;;;5111834;27;20223;-69
2022/01/30 02:34:46;;;;;;;9.03;2.03;;;5.30;99.90;;;;;;5126305;27;20207;-68
2022/01/30 02:37:14;;;;;;;5.27;1.83;;;5.20;99.90;;;;;;5128348;27;20196;-69
2022/01/30 02:39:41;;;;;;;4.63;1.87;;;5.20;99.90;;;;;;5123947;27;20211;-69
2022/01/30 02:42:13;;;;;;;7.60;1.83;;;5.20;99.90;;;;;;5119641;27;20208;-69
2022/01/30 02:44:45;;;;;;;5.90;1.67;;;5.20;99.90;;;;;;5112232;27;20235;-69
2022/01/30 02:47:22;;;;;;;12.37;2.43;;;5.20;99.90;;;;;;5121297;27;20286;-69
2022/01/30 02:50:09;;;;;;;7.90;2.17;;;5.20;99.90;;;;;;5126285;27;20218;-70
2022/01/30 02:52:39;;;;;;;5.20;2.00;;;5.20;99.90;;;;;;5123883;27;20256;-69
2022/01/30 02:55:07;;;;;;;7.37;1.83;;;5.10;99.90;;;;;;5114629;27;20204;-69
2022/01/30 02:57:35;;;;;;;8.43;2.33;;;5.20;99.90;;;;;;5121680;27;20215;-69
2022/01/30 03:00:04;;;;;;;7.67;1.90;;;5.10;99.90;;;;;;5129600;27;20210;-69
2022/01/30 03:02:31;;;;;;;8.37;1.97;;;5.20;99.90;;;;;;5123587;27;20200;-69
2022/01/30 03:04:57;;;;;;;8.40;2.40;;;5.10;99.90;;;;;;5111866;28;20214;-69
2022/01/30 03:07:24;;;;;;;8.77;1.90;;;5.10;99.90;;;;;;5112274;28;20242;-70
2022/01/30 03:09:51;;;;;;;8.07;2.07;;;5.10;99.90;;;;;;5113715;28;20218;-69
2022/01/30 03:12:18;;;;;;;8.43;1.80;;;5.10;99.90;;;;;;5116689;28;20219;-69
2022/01/30 03:14:46;;;;;;;8.93;1.90;;;5.10;99.90;;;;;;5130355;27;20196;-69
2022/01/30 03:17:13;;;;;;;9.43;1.73;;;5.10;99.90;;;;;;5135356;27;20203;-69
2022/01/30 03:19:40;;;;;;;6.43;1.50;;;5.10;99.90;;;;;;5132821;27;20199;-69
2022/01/30 03:22:07;;;;;;;5.13;1.30;;;5.00;99.90;;;;;;5126178;27;20203;-69
2022/01/30 03:24:36;;;;;;;5.03;1.67;;;4.90;99.90;;;;;;5130685;27;20566;-70
2022/01/30 03:27:04;;;;;;;5.37;1.73;;;4.80;99.90;;;;;;5132681;27;20207;-70
2022/01/30 03:29:32;;;;;;;3.53;0.90;;;4.60;99.90;;;;;;5124644;27;20228;-70
2022/01/30 03:32:00;;;;;;;6.07;1.30;;;4.50;99.90;;;;;;5121575;27;20443;-71
2022/01/30 03:34:27;;;;;;;5.03;1.10;;;4.40;99.90;;;;;;5116222;28;20210;-69
2022/01/30 03:36:54;;;;;;;4.90;0.80;;;4.30;99.90;;;;;;5116190;28;20208;-70
2022/01/30 03:39:21;;;;;;;2.73;0.90;;;4.30;99.90;;;;;;5119637;27;20213;-69
2022/01/30 03:41:48;;;;;;;6.17;1.03;;;4.20;99.90;;;;;;5129187;27;20575;-70
2022/01/30 03:44:14;;;;;;;4.37;1.20;;;4.20;99.90;;;;;;5128849;27;20607;-70
2022/01/30 03:46:41;;;;;;;4.00;1.03;;;4.10;99.90;;;;;;5117157;27;20227;-70
2022/01/30 03:49:09;;;;;;;5.90;1.10;;;4.10;99.90;;;;;;5120552;27;20199;-69
2022/01/30 03:51:36;;;;;;;3.83;1.40;;;4.00;99.90;;;;;;5119852;27;20230;-69
2022/01/30 03:54:03;;;;;;;3.73;1.13;;;4.00;99.90;;;;;;5127379;27;20207;-70
2022/01/30 03:56:30;;;;;;;3.13;1.00;;;4.00;99.90;;;;;;5131324;27;20813;-70
2022/01/30 03:58:57;;;;;;;5.50;1.00;;;4.00;99.90;;;;;;5123163;27;20260;-69
2022/01/30 04:01:24;;;;;;;2.87;1.10;;;4.00;99.90;;;;;;5131060;27;20625;-70
2022/01/30 04:03:51;;;;;;;2.83;1.00;;;4.00;99.90;;;;;;5125995;27;20710;-70
2022/01/30 04:06:19;;;;;;;7.83;1.53;;;4.00;99.90;;;;;;5118419;27;20246;-70
2022/01/30 04:08:46;;;;;;;4.17;1.37;;;4.00;99.90;;;;;;5129099;27;20203;-70
2022/01/30 04:11:13;;;;;;;6.23;1.23;;;4.00;99.90;;;;;;5123704;27;20262;-70
2022/01/30 04:13:40;;;;;;;6.47;1.60;;;4.10;99.90;;;;;;5115794;27;20204;-69
2022/01/30 04:16:08;;;;;;;6.60;1.70;;;4.10;99.90;;;;;;5127772;27;20200;-70
2022/01/30 04:18:35;;;;;;;3.97;1.40;;;4.10;99.90;;;;;;5135536;27;20203;-69
2022/01/30 04:21:02;;;;;;;6.30;1.30;;;4.10;99.90;;;;;;5131870;27;20211;-70
2022/01/30 04:23:30;;;;;;;6.00;1.57;;;4.10;99.90;;;;;;5137892;27;20203;-70
2022/01/30 04:25:57;;;;;;;6.93;1.80;;;4.20;99.90;;;;;;5120531;27;20285;-69
2022/01/30 04:28:25;;;;;;;9.60;2.47;;;4.20;99.90;;;;;;5131516;27;20199;-69
2022/01/30 04:30:53;;;;;;;6.60;2.10;;;4.20;99.90;;;;;;5119734;27;20211;-69
2022/01/30 04:33:20;;;;;;;8.77;1.80;;;4.30;99.90;;;;;;5134277;27;20212;-70
2022/01/30 04:35:48;;;;;;;7.33;1.80;;;4.40;99.90;;;;;;5122617;27;20208;-69
2022/01/30 04:38:23;;;;;;;7.07;1.60;;;4.40;99.90;;;;;;5130134;27;20514;-69
2022/01/30 05:00:28;;;;;;;8.07;2.03;;;4.80;99.90;;;;;;5114767;27;20227;-70
2022/01/30 05:03:02;;;;;;;8.80;1.70;;;4.80;99.90;;;;;;5129133;27;20191;-70
2022/01/30 05:05:46;;;;;;;3.23;1.10;;;4.80;99.90;;;;;;5117457;27;20195;-69
2022/01/30 05:08:14;;;;;;;3.53;1.63;;;4.90;99.90;;;;;;5116474;27;20203;-69
2022/01/30 05:10:40;;;;;;;7.33;1.53;;;4.90;99.90;;;;;;5128265;27;20230;-69
2022/01/30 05:13:14;;;;;;;4.03;1.23;;;4.90;99.90;;;;;;5122772;27;20223;-70
2022/01/30 05:15:42;;;;;;;8.07;1.77;;;4.90;99.90;;;;;;5116987;27;20215;-69
2022/01/30 05:18:10;;;;;;;5.13;1.43;;;4.90;99.90;;;;;;5126874;27;20237;-69
2022/01/30 05:20:38;;;;;;;7.63;1.47;;;4.90;99.90;;;;;;5141689;27;20247;-70
2022/01/30 05:23:05;;;;;;;9.43;1.63;;;4.90;99.90;;;;;;5130605;27;20203;-70
2022/01/30 05:25:32;;;;;;;9.73;1.70;;;5.00;99.90;;;;;;5130269;27;20203;-70
2022/01/30 05:28:00;;;;;;;6.07;1.83;;;4.90;99.90;;;;;;5123851;27;20394;-70
2022/01/30 05:30:29;;;;;;;6.20;1.60;;;4.90;99.90;;;;;;5116959;27;20283;-69
2022/01/30 05:32:56;;;;;;;3.97;1.17;;;4.90;99.90;;;;;;5113027;27;20258;-70
2022/01/30 05:35:23;;;;;;;3.30;1.00;;;4.80;99.90;;;;;;5123072;27;20203;-70
2022/01/30 05:37:50;;;;;;;4.97;1.40;;;4.80;99.90;;;;;;5118887;27;20215;-69
2022/01/30 05:40:18;;;;;;;4.83;1.10;;;4.70;99.90;;;;;;5132749;27;20210;-69
2022/01/30 05:42:45;;;;;;;4.20;1.47;;;4.60;99.90;;;;;;5127785;27;20656;-70
2022/01/30 05:45:18;;;;;;;3.57;1.27;;;4.50;99.90;;;;;;5127493;27;20239;-70
2022/01/30 05:47:53;;;;;;;5.73;1.50;;;4.50;99.90;;;;;;5113488;28;20195;-70
2022/01/30 05:50:20;;;;;;;3.63;1.20;;;4.40;99.90;;;;;;5115625;27;20199;-69
2022/01/30 05:52:47;;;;;;;4.97;1.77;;;4.40;99.90;;;;;;5125900;27;20218;-70
2022/01/30 05:55:14;;;;;;;3.73;1.30;;;4.40;99.90;;;;;;5122322;27;20199;-70
2022/01/30 05:57:41;;;;;;;7.13;1.60;;;4.40;99.90;;;;;;5133053;27;20608;-70
2022/01/30 06:00:13;;;;;;;4.57;1.40;;;4.40;99.90;;;;;;5118743;27;20632;-69
2022/01/30 06:02:40;;;;;;;7.10;1.33;;;4.40;99.90;;;;;;5121458;27;20195;-70
2022/01/30 06:05:09;;;;;;;7.30;1.77;;;4.40;99.90;;;;;;5131294;27;20204;-69
2022/01/30 06:07:46;;;;;;;4.80;1.53;;;4.40;99.90;;;;;;5117671;27;20632;-69
2022/01/30 06:10:13;;;;;;;8.10;1.80;;;4.40;99.90;;;;;;5134696;27;20225;-70
2022/01/30 06:12:39;;;;;;;4.50;1.50;;;4.50;99.90;;;;;;5126039;27;20242;-70
2022/01/30 06:15:07;;;;;;;6.57;1.63;;;4.40;99.90;;;;;;5123467;27;20214;-70
2022/01/30 06:17:34;;;;;;;3.53;1.20;;;4.40;99.90;;;;;;5123371;27;20199;-70
2022/01/30 06:20:01;;;;;;;6.80;1.40;;;4.40;99.90;;;;;;5116613;27;20199;-70
2022/01/30 06:22:29;;;;;;;6.17;1.30;;;4.40;99.90;;;;;;5115215;27;20203;-70
2022/01/30 06:24:56;;;;;;;5.50;1.60;;;4.40;99.90;;;;;;5128545;27;20203;-69
2022/01/30 06:27:23;;;;;;;5.80;1.60;;;4.40;99.90;;;;;;5127740;27;20269;-70
2022/01/30 06:29:50;;;;;;;7.80;1.60;;;4.40;99.90;;;;;;5128686;27;20204;-70
2022/01/30 06:32:16;;;;;;;4.77;1.60;;;4.40;99.90;;;;;;5117709;27;20684;-70
2022/01/30 06:34:44;;;;;;;5.03;1.63;;;4.50;99.90;;;;;;5124059;27;20218;-70
2022/01/30 06:37:11;;;;;;;8.00;1.57;;;4.50;99.90;;;;;;5116250;27;20760;-70
2022/01/30 06:39:39;;;;;;;4.70;1.30;;;4.50;99.90;;;;;;5128875;27;20730;-69
2022/01/30 06:42:07;;;;;;;6.97;1.50;;;4.50;99.90;;;;;;5121191;27;20207;-70
2022/01/30 06:44:34;;;;;;;7.47;1.50;;;4.40;99.90;;;;;;5131115;28;20207;-69
2022/01/30 06:47:01;;;;;;;5.93;1.50;;;4.40;99.90;;;;;;5132575;27;20239;-69
2022/01/30 06:49:28;;;;;;;4.37;1.67;;;4.40;99.90;;;;;;5133087;27;20224;-70
2022/01/30 06:51:55;;;;;;;3.23;1.13;;;4.40;99.90;;;;;;5127309;27;20215;-69
2022/01/30 06:54:22;;;;;;;6.23;1.50;;;4.40;99.90;;;;;;5127859;27;20206;-70
2022/01/30 06:56:50;;;;;;;5.63;1.67;;;4.30;99.90;;;;;;5135112;27;20713;-70
2022/01/30 06:59:17;;;;;;;7.10;1.70;;;4.40;99.90;;;;;;5135256;27;20203;-69
2022/01/30 07:01:44;;;;;;;7.93;1.77;;;4.40;99.90;;;;;;5129854;27;20209;-71
2022/01/30 07:04:11;;;;;;;7.30;1.70;;;4.40;99.90;;;;;;5125159;27;20314;-70
2022/01/30 07:06:37;;;;;;;6.70;1.30;;;4.40;99.90;;;;;;5125424;27;20242;-70
2022/01/30 07:09:04;;;;;;;5.53;1.40;;;4.50;99.90;;;;;;5119666;27;20208;-70
2022/01/30 07:11:31;;;;;;;8.23;2.57;;;4.40;99.90;;;;;;5119725;27;20570;-69
2022/01/30 07:13:59;;;;;;;3.93;1.60;;;4.40;99.90;;;;;;5132102;27;20653;-70
2022/01/30 07:16:26;;;;;;;4.20;1.40;;;4.40;99.90;;;;;;5129183;27;20257;-70
2022/01/30 07:18:53;;;;;;;5.67;1.30;;;4.40;99.90;;;;;;5128297;27;20206;-70
2022/01/30 07:21:20;;;;;;;4.93;1.40;;;4.40;99.90;;;;;;5132312;27;20210;-70
2022/01/30 07:23:47;;;;;;;5.97;1.50;;;4.40;99.90;;;;;;5115774;28;20200;-70
2022/01/30 07:26:14;;;;;;;4.23;1.40;;;4.40;99.90;;;;;;5128328;27;20211;-75
2022/01/30 07:28:40;;;;;;;3.20;1.10;;;4.40;99.90;;;;;;5123536;27;20682;-74
2022/01/30 07:31:09;;;;;;;3.20;1.17;;;4.40;99.90;;;;;;5122725;27;20427;-75
2022/01/30 07:33:39;;;;;;;5.70;1.30;;;4.40;99.90;;;;;;5117342;28;20228;-76
2022/01/30 07:36:07;;;;;;;4.20;1.60;;;4.40;99.90;;;;;;5117354;27;20282;-75
2022/01/30 07:38:35;;;;;;;4.73;1.50;;;4.40;99.90;;;;;;5122141;27;20278;-76
2022/01/30 07:41:02;;;;;;;6.07;1.70;;;4.40;99.90;;;;;;5131809;27;20208;-73
2022/01/30 07:43:31;;;;;;;5.37;1.40;;;4.40;99.90;;;;;;5122257;27;20203;-73
2022/01/30 07:45:58;;;;;;;3.80;1.10;;;4.30;99.90;;;;;;5129387;27;20208;-74
2022/01/30 07:48:26;;;;;;;2.20;0.93;;;4.20;99.90;;;;;;5135006;27;20588;-75
2022/01/30 07:50:53;;;;;;;1.77;0.73;;;4.10;99.90;;;;;;5130590;27;20199;-73
2022/01/30 07:53:20;;;;;;;2.83;1.50;;;4.00;99.90;;;;;;5120601;27;20318;-73
2022/01/30 07:55:48;;;;;;;1.87;1.00;;;3.90;99.90;;;;;;5127573;27;20279;-73
2022/01/30 07:58:15;;;;;;;4.53;1.40;;;3.70;99.90;;;;;;5120494;27;20204;-74
2022/01/30 08:00:42;;;;;;;2.43;1.23;;;3.60;99.90;;;;;;5138441;27;20263;-71
2022/01/30 08:03:10;;;;;;;2.00;1.10;;;3.50;99.90;;;;;;5129599;27;20202;-74
2022/01/30 08:05:40;;;;;;;2.00;1.13;;;3.40;99.90;;;;;;5133040;27;20290;-73
2022/01/30 08:08:07;;;;;;;1.57;1.03;;;3.30;99.90;;;;;;5125509;27;20250;-72
2022/01/30 08:10:34;;;;;;;1.63;0.80;;;3.20;99.90;;;;;;5138179;27;20215;-73
2022/01/30 08:13:01;;;;;;;1.07;0.80;;;3.20;99.90;;;;;;5124234;27;20766;-74
2022/01/30 08:15:28;;;;;;;3.07;0.80;;;3.10;99.90;;;;;;5132499;27;20306;-73
2022/01/30 08:17:55;;;;;;;4.50;0.90;;;3.10;99.90;;;;;;5129296;27;20204;-75
2022/01/30 08:20:25;;;;;;;1.00;0.70;;;3.10;99.90;;;;;;5121245;27;20200;-72
2022/01/30 08:22:55;;;;;;;1.20;1.00;;;3.00;99.90;;;;;;5130325;27;20234;-74
2022/01/30 08:25:25;;;;;;;1.97;0.90;;;3.00;99.90;;;;;;5123225;27;20299;-75
2022/01/30 08:27:53;;;;;;;1.90;0.60;;;2.90;99.90;;;;;;5122244;27;20234;-76
2022/01/30 08:30:20;;;;;;;1.03;0.77;;;2.90;99.90;;;;;;5125973;27;20207;-74
2022/01/30 08:32:48;;;;;;;1.07;0.70;;;2.90;99.90;;;;;;5120956;27;20743;-73
2022/01/30 08:35:16;;;;;;;0.87;0.77;;;2.90;99.90;;;;;;5120103;27;20511;-74
2022/01/30 08:37:43;;;;;;;0.90;0.60;;;2.90;99.90;;;;;;5124945;27;20286;-74
2022/01/30 08:40:14;;;;;;;0.60;0.60;;;3.00;99.90;;;;;;5118358;27;20207;-73
2022/01/30 08:42:42;;;;;;;1.10;0.50;;;3.10;99.90;;;;;;5121602;27;20593;-73
2022/01/30 08:45:10;;;;;;;0.70;0.40;;;3.10;99.90;;;;;;5124599;27;20200;-73
2022/01/30 08:47:38;;;;;;;0.50;0.50;;;3.10;99.90;;;;;;5124278;27;20278;-75
2022/01/30 08:50:06;;;;;;;1.57;0.60;;;3.10;99.90;;;;;;5125977;27;20216;-74
2022/01/30 08:52:34;;;;;;;1.03;0.57;;;3.10;99.90;;;;;;5120513;27;20630;-74
2022/01/30 08:55:02;;;;;;;0.97;0.77;;;3.10;99.90;;;;;;5124065;27;20208;-74
2022/01/30 08:57:30;;;;;;;0.80;0.40;;;3.10;99.90;;;;;;5120150;27;20243;-72
2022/01/30 08:59:58;;;;;;;1.70;0.40;;;3.10;99.90;;;;;;5121738;27;20298;-75
2022/01/30 09:02:25;;;;;;;0.80;0.40;;;3.10;99.90;;;;;;5118041;27;20679;-72
2022/01/30 09:04:52;;;;;;;1.47;0.70;;;3.30;99.90;;;;;;5124602;27;20214;-74
2022/01/30 09:07:19;;;;;;;1.97;1.33;;;3.50;99.90;;;;;;5120069;27;20590;-72
2022/01/30 09:09:47;;;;;;;1.23;0.60;;;3.70;99.90;;;;;;5117838;27;20569;-71
2022/01/30 09:12:14;;;;;;;1.00;0.73;;;3.90;99.90;;;;;;5132001;27;20274;-72
2022/01/30 09:14:43;;;;;;;0.70;0.60;;;4.00;99.90;;;;;;5120317;27;20242;-73
2022/01/30 09:17:13;;;;;;;0.93;0.60;;;3.90;99.90;;;;;;5119780;27;20564;-73
2022/01/30 09:19:41;;;;;;;0.50;0.50;;;3.90;99.90;;;;;;5119095;27;20235;-71
2022/01/30 09:22:09;;;;;;;1.73;0.80;;;3.90;99.90;;;;;;5120320;27;20234;-73
2022/01/30 09:24:36;;;;;;;1.63;0.80;;;3.80;99.90;;;;;;5118670;27;20207;-74
2022/01/30 09:27:03;;;;;;;1.83;0.70;;;3.90;99.90;;;;;;5119383;27;20568;-72
2022/01/30 09:29:30;;;;;;;1.50;1.00;;;3.90;99.90;;;;;;5123661;27;20199;-72
2022/01/30 09:31:59;;;;;;;4.53;1.00;;;4.00;99.90;;;;;;5133901;27;20207;-73
2022/01/30 09:34:26;;;;;;;2.20;0.90;;;4.00;99.90;;;;;;5129959;27;20226;-73
2022/01/30 09:36:53;;;;;;;2.90;1.40;;;4.10;99.90;;;;;;5133964;27;20202;-73
2022/01/30 09:39:20;;;;;;;3.77;1.17;;;4.10;99.90;;;;;;5135194;27;20221;-69
2022/01/30 09:41:49;;;;;;;2.83;1.37;;;4.10;99.90;;;;;;5134344;27;20289;-71
2022/01/30 09:44:17;;;;;;;6.00;1.47;;;4.00;99.90;;;;;;5133354;27;20214;-70
2022/01/30 09:46:45;;;;;;;2.63;1.00;;;4.00;99.90;;;;;;5124728;27;20287;-73
2022/01/30 09:49:14;;;;;;;3.77;1.40;;;4.00;99.90;;;;;;5124184;27;20204;-72
2022/01/30 09:51:42;;;;;;;2.53;1.30;;;3.90;99.90;;;;;;5128433;27;20214;-70
2022/01/30 09:54:11;;;;;;;4.53;1.50;;;3.90;99.90;;;;;;5132269;27;20311;-71
2022/01/30 09:56:38;;;;;;;3.33;1.30;;;3.90;99.90;;;;;;5123343;27;20227;-71
2022/01/30 09:59:05;;;;;;;4.17;1.97;;;3.80;99.90;;;;;;5136234;27;20210;-68
2022/01/30 10:01:34;;;;;;;3.20;1.60;;;3.80;99.90;;;;;;5135412;27;20666;-71
2022/01/30 10:04:02;;;;;;;3.83;2.03;;;3.80;99.90;;;;;;5135666;27;20248;-71
2022/01/30 10:06:34;;;;;;;3.97;1.67;;;3.80;99.90;;;;;;5131786;27;20237;-71
2022/01/30 10:09:24;;;;;;;2.77;1.40;;;3.80;99.90;;;;;;5134653;27;20199;-71
2022/01/30 10:12:00;;;;;;;3.93;1.73;;;3.80;99.90;;;;;;5132915;27;20199;-72
2022/01/30 10:14:27;;;;;;;7.57;1.83;;;3.90;99.90;;;;;;5120330;27;20303;-71
2022/01/30 10:16:54;;;;;;;5.00;1.63;;;3.90;99.90;;;;;;5144001;27;20211;-72
2022/01/30 10:19:23;;;;;;;7.93;2.10;;;3.90;99.90;;;;;;5134530;27;20672;-70
2022/01/30 10:22:05;;;;;;;6.27;1.90;;;3.90;99.90;;;;;;5129418;27;20692;-71
2022/01/30 10:24:38;;;;;;;5.90;1.93;;;3.90;99.90;;;;;;5139309;27;20285;-72
2022/01/30 10:27:19;;;;;;;7.27;2.10;;;3.90;99.90;;;;;;5130069;27;20295;-71
2022/01/30 10:29:55;;;;;;;9.90;2.13;;;4.00;99.90;;;;;;5133402;27;20292;-70
2022/01/30 10:32:22;;;;;;;5.37;2.40;;;4.00;99.90;;;;;;5143027;27;20278;-70
2022/01/30 10:34:57;;;;;;;7.60;2.20;;;4.00;99.90;;;;;;5128419;27;20227;-71
2022/01/30 10:37:25;;;;;;;7.93;2.43;;;4.00;99.90;;;;;;5130513;27;20285;-70
2022/01/30 10:40:12;;;;;;;4.70;2.00;;;4.00;99.90;;;;;;5138462;27;20315;-71
2022/01/30 10:42:45;;;;;;;8.80;2.53;;;4.10;99.90;;;;;;5132568;27;20283;-71
2022/01/30 10:45:14;;;;;;;7.20;2.10;;;4.10;99.90;;;;;;5117897;27;20217;-70
2022/01/30 10:47:43;;;;;;;3.73;1.90;;;4.10;99.90;;;;;;5132362;28;20209;-70
2022/01/30 10:50:13;;;;;;;4.20;1.80;;;4.00;99.90;;;;;;5123604;27;20563;-70
2022/01/30 10:52:56;;;;;;;5.73;2.33;;;4.00;99.90;;;;;;5132562;28;20209;-71
2022/01/30 10:55:37;;;;;;;6.53;2.07;;;4.00;99.90;;;;;;5117870;28;20236;-72
2022/01/30 10:58:06;;;;;;;3.67;1.47;;;4.00;99.90;;;;;;5132014;28;20245;-70
2022/01/30 11:00:41;;;;;;;5.87;2.10;;;4.00;99.90;;;;;;5133087;28;20199;-70
2022/01/30 11:03:09;;;;;;;3.33;1.70;;;3.90;99.90;;;;;;5134401;27;20195;-71
2022/01/30 11:05:58;;;;;;;7.67;2.53;;;5.00;99.90;;;;;;5135278;27;20205;-71
2022/01/30 11:08:28;;;;;;;6.60;1.87;;;3.90;99.90;;;;;;5125546;27;20191;-70
2022/01/30 11:11:01;;;;;;;6.63;2.50;;;3.90;99.90;;;;;;5128481;28;20196;-70
2022/01/30 11:13:33;;;;;;;7.97;2.57;;;3.90;99.90;;;;;;5111311;28;20319;-70
2022/01/30 11:18:43;;;;;;;9.97;2.60;;;3.90;99.90;;;;;;5116096;27;20198;-70
2022/01/30 11:21:10;;;;;;;5.93;2.07;;;3.90;99.90;;;;;;5113474;28;20207;-71
2022/01/30 11:23:40;;;;;;;6.07;2.03;;;3.90;99.90;;;;;;5111779;28;20192;-71
2022/01/30 11:26:08;;;;;;;8.33;2.40;;;4.00;99.90;;;;;;5114155;28;20669;-71
2022/01/30 11:28:36;;;;;;;5.13;1.80;;;4.00;99.90;;;;;;5122285;28;20236;-70
2022/01/30 11:31:04;;;;;;;5.20;1.70;;;4.00;99.90;;;;;;5111459;28;20207;-70
2022/01/30 11:33:31;;;;;;;5.23;1.90;;;4.00;99.90;;;;;;5127110;27;20266;-71
2022/01/30 11:35:59;;;;;;;4.13;1.57;;;4.00;99.90;;;;;;5127852;27;20211;-72
2022/01/30 11:38:27;;;;;;;6.00;1.60;;;4.00;99.90;;;;;;5121772;27;20203;-72
2022/01/30 11:41:21;;;;;;;4.00;1.63;;;4.10;99.90;;;;;;5122612;27;20219;-71
2022/01/30 11:44:26;;;;;;;6.00;1.77;;;4.10;99.90;;;;;;5091691;28;20240;-72
2022/01/30 11:47:18;;;;;;;5.77;2.00;;;4.20;99.90;;;;;;5124103;27;20207;-72
2022/01/30 11:49:49;;;;;;;3.53;1.73;;;4.20;99.90;;;;;;5135310;27;20697;-72
2022/01/30 11:52:17;;;;;;;2.50;1.33;;;4.20;99.90;;;;;;5137412;27;20218;-71
2022/01/30 11:54:46;;;;;;;6.10;2.00;;;4.20;99.90;;;;;;5122855;27;20223;-71
2022/01/30 11:57:46;;;;;;;4.27;1.70;;;4.30;99.90;;;;;;5130226;27;20310;-71
2022/01/30 12:00:36;;;;;;;5.37;1.40;;;4.50;99.90;;;;;;5134800;27;20191;-71
2022/01/30 12:03:24;;;;;;;4.03;2.07;;;4.40;99.90;;;;;;5147499;27;20199;-70
2022/01/30 12:05:51;;;;;;;4.10;1.83;;;4.40;99.90;;;;;;5118564;27;20286;-71
2022/01/30 12:08:44;;;;;;;4.30;2.20;;;4.40;99.90;;;;;;5115177;27;20597;-71
2022/01/30 12:12:02;;;;;;;4.37;1.77;;;4.40;99.90;;;;;;5142788;27;20204;-72
2022/01/30 12:14:57;;;;;;;3.37;1.70;;;4.30;99.90;;;;;;5076387;28;20295;-71
2022/01/30 12:17:51;;;;;;;3.60;1.40;;;4.30;99.90;;;;;;5122575;27;20206;-72
2022/01/30 12:20:20;;;;;;;4.07;1.60;;;4.30;99.90;;;;;;5125422;27;20294;-71
2022/01/30 12:22:47;;;;;;;6.30;1.77;;;4.30;99.90;;;;;;5133753;27;20294;-70
2022/01/30 12:25:39;;;;;;;2.87;1.70;;;4.30;99.90;;;;;;5125575;27;20249;-70
2022/01/30 12:28:12;;;;;;;1.73;1.20;;;4.30;99.90;;;;;;5133592;27;20191;-73
2022/01/30 12:30:49;;;;;;;1.83;1.00;;;4.40;99.90;;;;;;5137041;27;20647;-73
2022/01/30 12:33:47;;;;;;;1.70;1.40;;;4.30;99.90;;;;;;5136333;27;20694;-73
2022/01/30 12:36:17;;;;;;;1.53;0.97;;;4.30;99.90;;;;;;5145343;27;20752;-70
2022/01/30 12:38:44;;;;;;;2.03;1.13;;;4.30;99.90;;;;;;5136521;27;20199;-75
2022/01/30 12:41:19;;;;;;;1.73;1.13;;;4.20;99.90;;;;;;5141854;27;20241;-72
2022/01/30 12:43:51;;;;;;;2.27;1.20;;;4.10;99.90;;;;;;5145615;27;20205;-73
2022/01/30 12:46:19;;;;;;;2.37;1.07;;;4.10;99.90;;;;;;5131260;27;20728;-75
2022/01/30 12:49:04;;;;;;;2.70;1.23;;;4.00;99.90;;;;;;5128251;27;20298;-72
2022/01/30 12:51:30;;;;;;;2.13;1.17;;;4.00;99.90;;;;;;5129819;27;20199;-71
2022/01/30 12:53:58;;;;;;;1.77;1.00;;;4.00;99.90;;;;;;5134905;27;20217;-68
2022/01/30 12:56:26;;;;;;;1.07;0.97;;;4.10;99.90;;;;;;5128955;27;20226;-68
2022/01/30 12:58:57;;;;;;;1.50;0.93;;;4.10;99.90;;;;;;5120719;27;20210;-67
2022/01/30 13:01:28;;;;;;;1.63;1.00;;;4.00;99.90;;;;;;5135536;27;20327;-66
2022/01/30 13:04:03;;;;;;;1.97;1.13;;;4.00;99.90;;;;;;5123579;27;20404;-67
2022/01/30 13:06:34;;;;;;;2.17;0.90;;;4.00;99.90;;;;;;5125127;27;20234;-68
2022/01/30 13:09:01;;;;;;;1.23;1.10;;;4.00;99.90;;;;;;5130408;27;20196;-67
2022/01/30 13:11:28;;;;;;;2.33;0.80;;;4.00;99.90;;;;;;5122364;27;20261;-66
2022/01/30 13:13:58;;;;;;;2.03;1.10;;;4.00;99.90;;;;;;5134788;27;20218;-69
2022/01/30 13:16:30;;;;;;;1.10;1.00;;;4.00;99.90;;;;;;5132685;27;20207;-67
2022/01/30 13:18:57;;;;;;;1.63;0.80;;;3.90;99.90;;;;;;5133309;27;20206;-66
2022/01/30 13:21:30;;;;;;;1.20;1.00;;;3.90;99.90;;;;;;5129755;27;20203;-67
2022/01/30 13:23:58;;;;;;;0.80;0.80;;;3.90;99.90;;;;;;5133568;27;20302;-68
2022/01/30 13:26:37;;;;;;;2.30;1.13;;;3.90;99.90;;;;;;5119828;27;20223;-67
2022/01/30 13:29:09;;;;;;;1.50;1.10;;;3.90;99.90;;;;;;5132011;27;20201;-67
2022/01/30 13:31:38;;;;;;;1.10;0.90;;;4.00;99.90;;;;;;5129140;27;20282;-68
2022/01/30 13:34:27;;;;;;;1.90;0.90;;;3.90;99.90;;;;;;5133873;27;20334;-67
2022/01/30 13:37:00;;;;;;;0.90;0.70;;;3.90;99.90;;;;;;5124652;27;20380;-68
2022/01/30 13:39:34;;;;;;;1.10;0.80;;;3.90;99.90;;;;;;5131993;27;20195;-68
2022/01/30 13:42:41;;;;;;;1.40;1.00;;;3.90;99.90;;;;;;5130632;27;20234;-68
2022/01/30 13:48:10;;;;;;;1.07;0.73;;;4.00;99.90;;;;;;5100975;27;20204;-69
2022/01/30 13:50:40;;;;;;;0.70;0.70;;;4.00;99.90;;;;;;5129597;27;20256;-68
2022/01/30 13:53:09;;;;;;;1.27;0.67;;;4.00;99.90;;;;;;5129447;27;20213;-71
2022/01/30 13:55:37;;;;;;;1.20;0.80;;;4.00;99.90;;;;;;5132935;27;20217;-71
2022/01/30 13:58:05;;;;;;;0.67;0.67;;;4.00;99.90;;;;;;5133727;27;20231;-71
2022/01/30 14:00:33;;;;;;;1.63;0.50;;;4.00;99.90;;;;;;5133507;27;20564;-73